sensor_id;sensor_type;location;lat;lon;timestamp;temperature;humidity
7218;DHT22;3650;53.580;10.094;2024-01-06T00:01:34;3.90;88.00
7218;DHT22;3650;53.580;10.094;2024-01-06T00:04:01;3.80;88.20
7218;DHT22;3650;53.580;10.094;2024-01-06T00:06:29;3.80;88.30
7218;DHT22;3650;53.580;10.094;2024-01-06T00:08:56;3.80;88.00
7218;DHT22;3650;53.580;10.094;2024-01-06T00:11:23;3.90;88.20
7218;DHT22;3650;53.580;10.094;2024-01-06T00:13:50;3.90;88.50
7218;DHT22;3650;53.580;10.094;2024-01-06T00:16:18;3.80;88.90
7218;DHT22;3650;53.580;10.094;2024-01-06T00:18:46;3.80;89.10
7218;DHT22;3650;53.580;10.094;2024-01-06T00:21:13;3.90;89.90
7218;DHT22;3650;53.580;10.094;2024-01-06T00:23:40;3.90;89.90
7218;DHT22;3650;53.580;10.094;2024-01-06T00:26:07;3.90;89.50
7218;DHT22;3650;53.580;10.094;2024-01-06T00:28:35;3.90;89.40
7218;DHT22;3650;53.580;10.094;2024-01-06T00:31:02;3.90;89.20
7218;DHT22;3650;53.580;10.094;2024-01-06T00:33:29;3.90;89.00
7218;DHT22;3650;53.580;10.094;2024-01-06T00:35:57;3.90;89.40
7218;DHT22;3650;53.580;10.094;2024-01-06T00:38:24;3.80;89.30
7218;DHT22;3650;53.580;10.094;2024-01-06T00:40:52;3.80;89.20
7218;DHT22;3650;53.580;10.094;2024-01-06T00:43:20;3.80;89.20
7218;DHT22;3650;53.580;10.094;2024-01-06T00:45:47;3.80;89.60
7218;DHT22;3650;53.580;10.094;2024-01-06T00:48:14;3.90;89.90
7218;DHT22;3650;53.580;10.094;2024-01-06T00:50:41;3.80;89.60
7218;DHT22;3650;53.580;10.094;2024-01-06T00:53:09;3.80;89.70
7218;DHT22;3650;53.580;10.094;2024-01-06T00:55:36;3.80;89.90
7218;DHT22;3650;53.580;10.094;2024-01-06T00:58:03;3.90;90.10
7218;DHT22;3650;53.580;10.094;2024-01-06T01:00:30;3.90;90.20
7218;DHT22;3650;53.580;10.094;2024-01-06T01:02:57;3.90;90.10
7218;DHT22;3650;53.580;10.094;2024-01-06T01:05:25;3.90;89.90
7218;DHT22;3650;53.580;10.094;2024-01-06T01:07:52;3.80;89.60
7218;DHT22;3650;53.580;10.094;2024-01-06T01:10:20;3.80;89.70
7218;DHT22;3650;53.580;10.094;2024-01-06T01:12:47;3.80;89.50
7218;DHT22;3650;53.580;10.094;2024-01-06T01:15:14;3.80;88.80
7218;DHT22;3650;53.580;10.094;2024-01-06T01:17:40;3.80;89.10
7218;DHT22;3650;53.580;10.094;2024-01-06T01:20:08;3.80;89.40
7218;DHT22;3650;53.580;10.094;2024-01-06T01:22:35;3.80;89.70
7218;DHT22;3650;53.580;10.094;2024-01-06T01:25:02;3.80;89.60
7218;DHT22;3650;53.580;10.094;2024-01-06T01:27:34;3.80;89.30
7218;DHT22;3650;53.580;10.094;2024-01-06T01:30:01;3.80;89.40
7218;DHT22;3650;53.580;10.094;2024-01-06T01:32:28;3.80;89.30
7218;DHT22;3650;53.580;10.094;2024-01-06T01:34:55;3.80;89.70
7218;DHT22;3650;53.580;10.094;2024-01-06T01:37:23;3.80;89.80
7218;DHT22;3650;53.580;10.094;2024-01-06T01:39:50;3.80;89.90
7218;DHT22;3650;53.580;10.094;2024-01-06T01:42:17;3.80;90.00
7218;DHT22;3650;53.580;10.094;2024-01-06T01:44:45;3.80;89.90
7218;DHT22;3650;53.580;10.094;2024-01-06T01:47:13;3.80;90.00
7218;DHT22;3650;53.580;10.094;2024-01-06T01:49:45;3.80;89.70
7218;DHT22;3650;53.580;10.094;2024-01-06T01:52:12;3.80;89.50
7218;DHT22;3650;53.580;10.094;2024-01-06T01:54:40;3.80;89.80
7218;DHT22;3650;53.580;10.094;2024-01-06T01:57:07;3.80;90.00
7218;DHT22;3650;53.580;10.094;2024-01-06T01:59:35;3.80;89.90
7218;DHT22;3650;53.580;10.094;2024-01-06T02:02:04;3.80;89.50
7218;DHT22;3650;53.580;10.094;2024-01-06T02:04:31;3.80;89.40
7218;DHT22;3650;53.580;10.094;2024-01-06T02:06:58;3.80;89.60
7218;DHT22;3650;53.580;10.094;2024-01-06T02:09:25;3.80;90.00
7218;DHT22;3650;53.580;10.094;2024-01-06T02:11:56;3.80;90.00
7218;DHT22;3650;53.580;10.094;2024-01-06T02:14:23;3.80;89.70
7218;DHT22;3650;53.580;10.094;2024-01-06T02:16:51;3.80;89.70
7218;DHT22;3650;53.580;10.094;2024-01-06T02:19:19;3.80;89.50
7218;DHT22;3650;53.580;10.094;2024-01-06T02:21:52;3.80;89.50
7218;DHT22;3650;53.580;10.094;2024-01-06T02:24:20;3.80;89.70
7218;DHT22;3650;53.580;10.094;2024-01-06T02:26:47;3.80;89.30
7218;DHT22;3650;53.580;10.094;2024-01-06T02:29:14;3.80;89.20
7218;DHT22;3650;53.580;10.094;2024-01-06T02:31:41;3.80;89.50
7218;DHT22;3650;53.580;10.094;2024-01-06T02:34:08;3.70;89.50
7218;DHT22;3650;53.580;10.094;2024-01-06T02:36:35;3.70;89.20
7218;DHT22;3650;53.580;10.094;2024-01-06T02:39:04;3.80;89.10
7218;DHT22;3650;53.580;10.094;2024-01-06T02:41:31;3.80;89.00
7218;DHT22;3650;53.580;10.094;2024-01-06T02:43:58;3.80;88.70
7218;DHT22;3650;53.580;10.094;2024-01-06T02:46:24;3.80;89.00
7218;DHT22;3650;53.580;10.094;2024-01-06T02:48:51;3.80;89.20
7218;DHT22;3650;53.580;10.094;2024-01-06T02:51:18;3.80;89.30
7218;DHT22;3650;53.580;10.094;2024-01-06T02:53:45;3.80;89.20
7218;DHT22;3650;53.580;10.094;2024-01-06T02:56:13;3.80;89.50
7218;DHT22;3650;53.580;10.094;2024-01-06T02:58:40;3.70;89.50
7218;DHT22;3650;53.580;10.094;2024-01-06T03:01:07;3.80;89.80
7218;DHT22;3650;53.580;10.094;2024-01-06T03:03:34;3.70;89.90
7218;DHT22;3650;53.580;10.094;2024-01-06T03:06:02;3.70;90.00
7218;DHT22;3650;53.580;10.094;2024-01-06T03:08:29;3.70;89.40
7218;DHT22;3650;53.580;10.094;2024-01-06T03:10:56;3.70;89.80
7218;DHT22;3650;53.580;10.094;2024-01-06T03:13:25;3.70;90.10
7218;DHT22;3650;53.580;10.094;2024-01-06T03:15:54;3.60;89.40
7218;DHT22;3650;53.580;10.094;2024-01-06T03:18:21;3.70;90.10
7218;DHT22;3650;53.580;10.094;2024-01-06T03:20:48;3.70;90.20
7218;DHT22;3650;53.580;10.094;2024-01-06T03:23:15;3.60;89.90
7218;DHT22;3650;53.580;10.094;2024-01-06T03:25:42;3.60;90.20
7218;DHT22;3650;53.580;10.094;2024-01-06T03:28:09;3.60;90.20
7218;DHT22;3650;53.580;10.094;2024-01-06T03:30:38;3.60;90.30
7218;DHT22;3650;53.580;10.094;2024-01-06T03:33:06;3.70;90.50
7218;DHT22;3650;53.580;10.094;2024-01-06T03:35:33;3.70;90.50
7218;DHT22;3650;53.580;10.094;2024-01-06T03:38:00;3.60;90.20
7218;DHT22;3650;53.580;10.094;2024-01-06T03:40:27;3.60;90.30
7218;DHT22;3650;53.580;10.094;2024-01-06T03:42:54;3.60;90.50
7218;DHT22;3650;53.580;10.094;2024-01-06T03:45:21;3.60;90.40
7218;DHT22;3650;53.580;10.094;2024-01-06T03:47:50;3.50;90.60
7218;DHT22;3650;53.580;10.094;2024-01-06T03:50:17;3.50;90.90
7218;DHT22;3650;53.580;10.094;2024-01-06T03:52:43;3.50;90.80
7218;DHT22;3650;53.580;10.094;2024-01-06T03:55:11;3.50;90.80
7218;DHT22;3650;53.580;10.094;2024-01-06T03:57:37;3.50;90.90
7218;DHT22;3650;53.580;10.094;2024-01-06T04:00:05;3.50;90.90
7218;DHT22;3650;53.580;10.094;2024-01-06T04:02:33;3.60;90.80
7218;DHT22;3650;53.580;10.094;2024-01-06T04:05:01;3.60;90.50
7218;DHT22;3650;53.580;10.094;2024-01-06T04:07:30;3.50;90.40
7218;DHT22;3650;53.580;10.094;2024-01-06T04:09:57;3.50;90.40
7218;DHT22;3650;53.580;10.094;2024-01-06T04:12:24;3.60;90.40
7218;DHT22;3650;53.580;10.094;2024-01-06T04:14:50;3.60;90.40
7218;DHT22;3650;53.580;10.094;2024-01-06T04:17:17;3.60;90.40
7218;DHT22;3650;53.580;10.094;2024-01-06T04:19:44;3.60;90.20
7218;DHT22;3650;53.580;10.094;2024-01-06T04:22:12;3.60;90.20
7218;DHT22;3650;53.580;10.094;2024-01-06T04:24:39;3.50;90.40
7218;DHT22;3650;53.580;10.094;2024-01-06T04:27:06;3.60;90.20
7218;DHT22;3650;53.580;10.094;2024-01-06T04:29:33;3.50;90.00
7218;DHT22;3650;53.580;10.094;2024-01-06T04:31:59;3.50;90.10
7218;DHT22;3650;53.580;10.094;2024-01-06T04:34:26;3.60;90.10
7218;DHT22;3650;53.580;10.094;2024-01-06T04:36:53;3.50;89.70
7218;DHT22;3650;53.580;10.094;2024-01-06T04:39:21;3.50;89.50
7218;DHT22;3650;53.580;10.094;2024-01-06T04:41:48;3.50;89.90
7218;DHT22;3650;53.580;10.094;2024-01-06T04:44:14;3.50;90.00
7218;DHT22;3650;53.580;10.094;2024-01-06T04:46:41;3.50;90.00
7218;DHT22;3650;53.580;10.094;2024-01-06T04:49:08;3.50;88.80
7218;DHT22;3650;53.580;10.094;2024-01-06T04:51:35;3.50;89.10
7218;DHT22;3650;53.580;10.094;2024-01-06T04:54:01;3.50;89.70
7218;DHT22;3650;53.580;10.094;2024-01-06T04:56:30;3.50;89.40
7218;DHT22;3650;53.580;10.094;2024-01-06T04:58:56;3.50;89.70
7218;DHT22;3650;53.580;10.094;2024-01-06T05:01:24;3.50;90.00
7218;DHT22;3650;53.580;10.094;2024-01-06T05:03:51;3.50;89.60
7218;DHT22;3650;53.580;10.094;2024-01-06T05:06:18;3.50;89.70
7218;DHT22;3650;53.580;10.094;2024-01-06T05:08:44;3.50;89.90
7218;DHT22;3650;53.580;10.094;2024-01-06T05:11:11;3.50;90.00
7218;DHT22;3650;53.580;10.094;2024-01-06T05:13:40;3.50;89.90
7218;DHT22;3650;53.580;10.094;2024-01-06T05:16:07;3.50;89.70
7218;DHT22;3650;53.580;10.094;2024-01-06T05:18:34;3.60;89.70
7218;DHT22;3650;53.580;10.094;2024-01-06T05:21:01;3.50;89.00
7218;DHT22;3650;53.580;10.094;2024-01-06T05:23:29;3.50;89.60
7218;DHT22;3650;53.580;10.094;2024-01-06T05:25:56;3.50;90.00
7218;DHT22;3650;53.580;10.094;2024-01-06T05:28:22;3.50;90.20
7218;DHT22;3650;53.580;10.094;2024-01-06T05:30:50;3.50;90.00
7218;DHT22;3650;53.580;10.094;2024-01-06T05:33:17;3.50;90.10
7218;DHT22;3650;53.580;10.094;2024-01-06T05:35:44;3.50;89.60
7218;DHT22;3650;53.580;10.094;2024-01-06T05:38:11;3.50;89.70
7218;DHT22;3650;53.580;10.094;2024-01-06T05:40:38;3.50;90.00
7218;DHT22;3650;53.580;10.094;2024-01-06T05:43:04;3.50;90.10
7218;DHT22;3650;53.580;10.094;2024-01-06T05:45:31;3.50;90.00
7218;DHT22;3650;53.580;10.094;2024-01-06T05:48:00;3.50;89.50
7218;DHT22;3650;53.580;10.094;2024-01-06T05:50:27;3.50;89.70
7218;DHT22;3650;53.580;10.094;2024-01-06T05:52:54;3.50;90.10
7218;DHT22;3650;53.580;10.094;2024-01-06T05:55:21;3.50;90.00
7218;DHT22;3650;53.580;10.094;2024-01-06T05:57:48;3.50;89.90
7218;DHT22;3650;53.580;10.094;2024-01-06T06:00:15;3.50;89.40
7218;DHT22;3650;53.580;10.094;2024-01-06T06:02:42;3.50;89.80
7218;DHT22;3650;53.580;10.094;2024-01-06T06:05:11;3.40;89.50
7218;DHT22;3650;53.580;10.094;2024-01-06T06:07:39;3.50;89.90
7218;DHT22;3650;53.580;10.094;2024-01-06T06:10:07;3.50;90.20
7218;DHT22;3650;53.580;10.094;2024-01-06T06:12:35;3.50;90.10
7218;DHT22;3650;53.580;10.094;2024-01-06T06:15:02;3.40;90.00
7218;DHT22;3650;53.580;10.094;2024-01-06T06:17:29;3.50;90.00
7218;DHT22;3650;53.580;10.094;2024-01-06T06:19:56;3.50;90.10
7218;DHT22;3650;53.580;10.094;2024-01-06T06:22:25;3.50;90.10
7218;DHT22;3650;53.580;10.094;2024-01-06T06:24:55;3.50;90.10
7218;DHT22;3650;53.580;10.094;2024-01-06T06:27:22;3.40;90.10
7218;DHT22;3650;53.580;10.094;2024-01-06T06:29:49;3.40;90.00
7218;DHT22;3650;53.580;10.094;2024-01-06T06:32:16;3.40;90.00
7218;DHT22;3650;53.580;10.094;2024-01-06T06:34:43;3.40;90.00
7218;DHT22;3650;53.580;10.094;2024-01-06T06:37:10;3.40;90.00
7218;DHT22;3650;53.580;10.094;2024-01-06T06:39:38;3.40;89.90
7218;DHT22;3650;53.580;10.094;2024-01-06T06:42:05;3.50;90.00
7218;DHT22;3650;53.580;10.094;2024-01-06T06:44:32;3.40;90.00
7218;DHT22;3650;53.580;10.094;2024-01-06T06:46:58;3.40;89.80
7218;DHT22;3650;53.580;10.094;2024-01-06T06:49:25;3.40;89.50
7218;DHT22;3650;53.580;10.094;2024-01-06T06:51:52;3.40;89.40
7218;DHT22;3650;53.580;10.094;2024-01-06T06:54:21;3.40;89.70
7218;DHT22;3650;53.580;10.094;2024-01-06T06:56:49;3.40;89.90
7218;DHT22;3650;53.580;10.094;2024-01-06T06:59:16;3.40;90.10
7218;DHT22;3650;53.580;10.094;2024-01-06T07:01:43;3.40;90.00
7218;DHT22;3650;53.580;10.094;2024-01-06T07:04:10;3.40;89.80
7218;DHT22;3650;53.580;10.094;2024-01-06T07:06:37;3.40;89.80
7218;DHT22;3650;53.580;10.094;2024-01-06T07:09:04;3.40;89.70
7218;DHT22;3650;53.580;10.094;2024-01-06T07:11:31;3.40;90.10
7218;DHT22;3650;53.580;10.094;2024-01-06T07:13:59;3.40;90.00
7218;DHT22;3650;53.580;10.094;2024-01-06T07:16:26;3.40;90.00
7218;DHT22;3650;53.580;10.094;2024-01-06T07:18:53;3.40;90.20
7218;DHT22;3650;53.580;10.094;2024-01-06T07:21:20;3.40;89.50
7218;DHT22;3650;53.580;10.094;2024-01-06T07:23:48;3.40;88.80
7218;DHT22;3650;53.580;10.094;2024-01-06T07:26:15;3.40;88.90
7218;DHT22;3650;53.580;10.094;2024-01-06T07:28:43;3.40;89.00
7218;DHT22;3650;53.580;10.094;2024-01-06T07:31:11;3.40;89.40
7218;DHT22;3650;53.580;10.094;2024-01-06T07:33:38;3.40;89.20
7218;DHT22;3650;53.580;10.094;2024-01-06T07:36:05;3.40;89.10
7218;DHT22;3650;53.580;10.094;2024-01-06T07:38:32;3.40;88.90
7218;DHT22;3650;53.580;10.094;2024-01-06T07:40:59;3.40;89.00
7218;DHT22;3650;53.580;10.094;2024-01-06T07:43:26;3.40;88.60
7218;DHT22;3650;53.580;10.094;2024-01-06T07:45:54;3.40;88.50
7218;DHT22;3650;53.580;10.094;2024-01-06T07:48:22;3.30;87.80
7218;DHT22;3650;53.580;10.094;2024-01-06T07:50:49;3.40;87.90
7218;DHT22;3650;53.580;10.094;2024-01-06T07:53:16;3.40;88.00
7218;DHT22;3650;53.580;10.094;2024-01-06T07:55:43;3.40;88.20
7218;DHT22;3650;53.580;10.094;2024-01-06T07:58:09;3.30;88.00
7218;DHT22;3650;53.580;10.094;2024-01-06T08:00:37;3.40;87.10
7218;DHT22;3650;53.580;10.094;2024-01-06T08:03:04;3.40;87.50
7218;DHT22;3650;53.580;10.094;2024-01-06T08:05:33;3.40;87.50
7218;DHT22;3650;53.580;10.094;2024-01-06T08:07:59;3.40;87.40
7218;DHT22;3650;53.580;10.094;2024-01-06T08:10:26;3.40;86.50
7218;DHT22;3650;53.580;10.094;2024-01-06T08:12:53;3.30;87.00
7218;DHT22;3650;53.580;10.094;2024-01-06T08:15:20;3.40;87.50
7218;DHT22;3650;53.580;10.094;2024-01-06T08:17:47;3.40;87.90
7218;DHT22;3650;53.580;10.094;2024-01-06T08:20:14;3.40;87.10
7218;DHT22;3650;53.580;10.094;2024-01-06T08:22:42;3.40;87.00
7218;DHT22;3650;53.580;10.094;2024-01-06T08:25:09;3.40;86.70
7218;DHT22;3650;53.580;10.094;2024-01-06T08:27:36;3.40;86.90
7218;DHT22;3650;53.580;10.094;2024-01-06T08:30:04;3.40;87.00
7218;DHT22;3650;53.580;10.094;2024-01-06T08:32:31;3.40;87.10
7218;DHT22;3650;53.580;10.094;2024-01-06T08:34:58;3.40;86.50
7218;DHT22;3650;53.580;10.094;2024-01-06T08:37:25;3.40;85.70
7218;DHT22;3650;53.580;10.094;2024-01-06T08:39:53;3.40;85.60
7218;DHT22;3650;53.580;10.094;2024-01-06T08:42:20;3.40;86.10
7218;DHT22;3650;53.580;10.094;2024-01-06T08:44:47;3.40;86.60
7218;DHT22;3650;53.580;10.094;2024-01-06T08:47:14;3.40;86.50
7218;DHT22;3650;53.580;10.094;2024-01-06T08:49:40;3.40;86.70
7218;DHT22;3650;53.580;10.094;2024-01-06T08:52:07;3.40;86.90
7218;DHT22;3650;53.580;10.094;2024-01-06T08:54:34;3.40;86.90
7218;DHT22;3650;53.580;10.094;2024-01-06T08:57:03;3.40;86.50
7218;DHT22;3650;53.580;10.094;2024-01-06T08:59:29;3.40;86.90
7218;DHT22;3650;53.580;10.094;2024-01-06T09:01:56;3.40;87.20
7218;DHT22;3650;53.580;10.094;2024-01-06T09:04:23;3.40;86.60
7218;DHT22;3650;53.580;10.094;2024-01-06T09:06:50;3.40;86.50
7218;DHT22;3650;53.580;10.094;2024-01-06T09:09:17;3.40;86.80
7218;DHT22;3650;53.580;10.094;2024-01-06T09:11:44;3.40;86.70
7218;DHT22;3650;53.580;10.094;2024-01-06T09:14:13;3.40;86.50
7218;DHT22;3650;53.580;10.094;2024-01-06T09:16:40;3.40;86.40
7218;DHT22;3650;53.580;10.094;2024-01-06T09:19:06;3.40;86.30
7218;DHT22;3650;53.580;10.094;2024-01-06T09:21:33;3.40;86.50
7218;DHT22;3650;53.580;10.094;2024-01-06T09:24:01;3.40;85.70
7218;DHT22;3650;53.580;10.094;2024-01-06T09:26:31;3.40;85.40
7218;DHT22;3650;53.580;10.094;2024-01-06T09:28:59;3.40;87.00
7218;DHT22;3650;53.580;10.094;2024-01-06T09:31:27;3.40;85.90
7218;DHT22;3650;53.580;10.094;2024-01-06T09:33:54;3.40;86.00
7218;DHT22;3650;53.580;10.094;2024-01-06T09:36:21;3.40;86.20
7218;DHT22;3650;53.580;10.094;2024-01-06T09:38:48;3.40;86.10
7218;DHT22;3650;53.580;10.094;2024-01-06T09:41:15;3.40;86.30
7218;DHT22;3650;53.580;10.094;2024-01-06T09:43:41;3.40;86.10
7218;DHT22;3650;53.580;10.094;2024-01-06T09:46:13;3.30;85.90
7218;DHT22;3650;53.580;10.094;2024-01-06T09:48:44;3.40;86.70
7218;DHT22;3650;53.580;10.094;2024-01-06T09:51:12;3.40;87.10
7218;DHT22;3650;53.580;10.094;2024-01-06T09:53:46;3.40;87.00
7218;DHT22;3650;53.580;10.094;2024-01-06T09:56:15;3.40;86.90
7218;DHT22;3650;53.580;10.094;2024-01-06T09:58:42;3.40;86.30
7218;DHT22;3650;53.580;10.094;2024-01-06T10:01:11;3.40;86.60
7218;DHT22;3650;53.580;10.094;2024-01-06T10:03:40;3.40;86.80
7218;DHT22;3650;53.580;10.094;2024-01-06T10:06:08;3.40;86.50
7218;DHT22;3650;53.580;10.094;2024-01-06T10:08:35;3.40;86.60
7218;DHT22;3650;53.580;10.094;2024-01-06T10:11:02;3.40;86.60
7218;DHT22;3650;53.580;10.094;2024-01-06T10:13:29;3.40;86.60
7218;DHT22;3650;53.580;10.094;2024-01-06T10:15:56;3.40;86.60
7218;DHT22;3650;53.580;10.094;2024-01-06T10:18:24;3.40;86.10
7218;DHT22;3650;53.580;10.094;2024-01-06T10:20:52;3.40;87.20
7218;DHT22;3650;53.580;10.094;2024-01-06T10:23:22;3.40;86.20
7218;DHT22;3650;53.580;10.094;2024-01-06T10:25:52;3.40;86.30
7218;DHT22;3650;53.580;10.094;2024-01-06T10:28:20;3.50;86.40
7218;DHT22;3650;53.580;10.094;2024-01-06T10:30:47;3.50;87.20
7218;DHT22;3650;53.580;10.094;2024-01-06T10:33:14;3.50;87.90
7218;DHT22;3650;53.580;10.094;2024-01-06T10:35:41;3.50;87.50
7218;DHT22;3650;53.580;10.094;2024-01-06T10:38:10;3.50;87.00
7218;DHT22;3650;53.580;10.094;2024-01-06T10:40:39;3.50;87.20
7218;DHT22;3650;53.580;10.094;2024-01-06T10:43:06;3.50;86.90
7218;DHT22;3650;53.580;10.094;2024-01-06T10:45:34;3.50;86.60
7218;DHT22;3650;53.580;10.094;2024-01-06T10:48:05;3.50;86.70
7218;DHT22;3650;53.580;10.094;2024-01-06T10:50:32;3.50;86.80
7218;DHT22;3650;53.580;10.094;2024-01-06T10:53:00;3.50;88.70
7218;DHT22;3650;53.580;10.094;2024-01-06T10:55:29;3.50;87.80
7218;DHT22;3650;53.580;10.094;2024-01-06T10:57:59;3.60;87.50
7218;DHT22;3650;53.580;10.094;2024-01-06T11:00:27;3.60;87.10
7218;DHT22;3650;53.580;10.094;2024-01-06T11:02:54;3.60;86.60
7218;DHT22;3650;53.580;10.094;2024-01-06T11:05:21;3.60;86.50
7218;DHT22;3650;53.580;10.094;2024-01-06T11:07:48;3.60;86.50
7218;DHT22;3650;53.580;10.094;2024-01-06T11:10:20;3.60;86.40
7218;DHT22;3650;53.580;10.094;2024-01-06T11:13:11;3.60;86.50
7218;DHT22;3650;53.580;10.094;2024-01-06T11:15:40;3.60;86.00
7218;DHT22;3650;53.580;10.094;2024-01-06T11:18:07;3.60;86.00
7218;DHT22;3650;53.580;10.094;2024-01-06T11:20:35;3.60;86.60
7218;DHT22;3650;53.580;10.094;2024-01-06T11:23:18;3.60;86.20
7218;DHT22;3650;53.580;10.094;2024-01-06T11:25:47;3.60;86.40
7218;DHT22;3650;53.580;10.094;2024-01-06T11:28:16;3.60;86.70
7218;DHT22;3650;53.580;10.094;2024-01-06T11:30:43;3.60;86.40
7218;DHT22;3650;53.580;10.094;2024-01-06T11:33:10;3.60;86.30
7218;DHT22;3650;53.580;10.094;2024-01-06T11:35:37;3.60;86.90
7218;DHT22;3650;53.580;10.094;2024-01-06T11:38:07;3.70;86.40
7218;DHT22;3650;53.580;10.094;2024-01-06T11:40:35;3.60;85.80
7218;DHT22;3650;53.580;10.094;2024-01-06T11:43:04;3.70;86.40
7218;DHT22;3650;53.580;10.094;2024-01-06T11:45:34;3.60;86.50
7218;DHT22;3650;53.580;10.094;2024-01-06T11:48:02;3.60;86.90
7218;DHT22;3650;53.580;10.094;2024-01-06T11:50:30;3.60;86.10
7218;DHT22;3650;53.580;10.094;2024-01-06T11:52:58;3.60;86.20
7218;DHT22;3650;53.580;10.094;2024-01-06T11:55:25;3.60;87.70
7218;DHT22;3650;53.580;10.094;2024-01-06T11:57:54;3.70;89.40
7218;DHT22;3650;53.580;10.094;2024-01-06T12:00:22;3.70;88.50
7218;DHT22;3650;53.580;10.094;2024-01-06T12:02:55;3.70;88.60
7218;DHT22;3650;53.580;10.094;2024-01-06T12:05:22;3.70;88.30
7218;DHT22;3650;53.580;10.094;2024-01-06T12:07:54;3.70;87.70
7218;DHT22;3650;53.580;10.094;2024-01-06T12:10:22;3.70;87.20
7218;DHT22;3650;53.580;10.094;2024-01-06T12:12:57;3.60;88.10
7218;DHT22;3650;53.580;10.094;2024-01-06T12:15:25;3.70;86.80
7218;DHT22;3650;53.580;10.094;2024-01-06T12:17:53;3.70;86.30
7218;DHT22;3650;53.580;10.094;2024-01-06T12:20:21;3.70;85.70
7218;DHT22;3650;53.580;10.094;2024-01-06T12:22:48;3.60;85.50
7218;DHT22;3650;53.580;10.094;2024-01-06T12:25:15;3.60;85.50
7218;DHT22;3650;53.580;10.094;2024-01-06T12:27:42;3.60;85.60
7218;DHT22;3650;53.580;10.094;2024-01-06T12:30:13;3.60;85.60
7218;DHT22;3650;53.580;10.094;2024-01-06T12:32:42;3.60;85.20
7218;DHT22;3650;53.580;10.094;2024-01-06T12:35:10;3.60;85.70
7218;DHT22;3650;53.580;10.094;2024-01-06T12:37:37;3.60;86.40
7218;DHT22;3650;53.580;10.094;2024-01-06T12:40:05;3.60;86.40
7218;DHT22;3650;53.580;10.094;2024-01-06T12:42:32;3.60;86.40
7218;DHT22;3650;53.580;10.094;2024-01-06T12:44:58;3.60;86.50
7218;DHT22;3650;53.580;10.094;2024-01-06T12:47:25;3.60;86.40
7218;DHT22;3650;53.580;10.094;2024-01-06T12:49:52;3.60;86.30
7218;DHT22;3650;53.580;10.094;2024-01-06T12:52:20;3.60;86.30
7218;DHT22;3650;53.580;10.094;2024-01-06T12:54:47;3.60;86.00
7218;DHT22;3650;53.580;10.094;2024-01-06T12:57:14;3.60;86.00
7218;DHT22;3650;53.580;10.094;2024-01-06T12:59:41;3.60;86.50
7218;DHT22;3650;53.580;10.094;2024-01-06T13:02:08;3.60;86.70
7218;DHT22;3650;53.580;10.094;2024-01-06T13:04:35;3.60;87.00
7218;DHT22;3650;53.580;10.094;2024-01-06T13:07:02;3.60;87.00
7218;DHT22;3650;53.580;10.094;2024-01-06T13:09:30;3.60;87.00
7218;DHT22;3650;53.580;10.094;2024-01-06T13:11:57;3.50;86.70
7218;DHT22;3650;53.580;10.094;2024-01-06T13:14:25;3.50;86.80
7218;DHT22;3650;53.580;10.094;2024-01-06T13:16:52;3.50;87.20
7218;DHT22;3650;53.580;10.094;2024-01-06T13:19:19;3.50;88.00
7218;DHT22;3650;53.580;10.094;2024-01-06T13:21:47;3.60;88.60
7218;DHT22;3650;53.580;10.094;2024-01-06T13:24:14;3.60;89.00
7218;DHT22;3650;53.580;10.094;2024-01-06T13:26:42;3.60;89.20
7218;DHT22;3650;53.580;10.094;2024-01-06T13:29:08;3.60;89.00
7218;DHT22;3650;53.580;10.094;2024-01-06T13:31:36;3.60;88.20
7218;DHT22;3650;53.580;10.094;2024-01-06T13:34:04;3.60;88.10
7218;DHT22;3650;53.580;10.094;2024-01-06T13:36:31;3.60;87.40
7218;DHT22;3650;53.580;10.094;2024-01-06T13:38:58;3.60;87.40
7218;DHT22;3650;53.580;10.094;2024-01-06T13:41:25;3.60;87.10
7218;DHT22;3650;53.580;10.094;2024-01-06T13:43:53;3.60;87.10
7218;DHT22;3650;53.580;10.094;2024-01-06T13:46:20;3.60;86.60
7218;DHT22;3650;53.580;10.094;2024-01-06T13:48:47;3.60;86.50
7218;DHT22;3650;53.580;10.094;2024-01-06T13:51:14;3.60;86.80
7218;DHT22;3650;53.580;10.094;2024-01-06T13:53:41;3.50;87.10
7218;DHT22;3650;53.580;10.094;2024-01-06T13:56:08;3.50;87.40
7218;DHT22;3650;53.580;10.094;2024-01-06T13:58:35;3.50;87.30
7218;DHT22;3650;53.580;10.094;2024-01-06T14:01:04;3.60;87.50
7218;DHT22;3650;53.580;10.094;2024-01-06T14:03:31;3.50;87.50
7218;DHT22;3650;53.580;10.094;2024-01-06T14:05:58;3.50;87.30
7218;DHT22;3650;53.580;10.094;2024-01-06T14:08:25;3.50;87.60
7218;DHT22;3650;53.580;10.094;2024-01-06T14:10:52;3.50;87.50
7218;DHT22;3650;53.580;10.094;2024-01-06T14:13:18;3.50;87.50
7218;DHT22;3650;53.580;10.094;2024-01-06T14:15:45;3.50;87.40
7218;DHT22;3650;53.580;10.094;2024-01-06T14:18:13;3.50;87.50
7218;DHT22;3650;53.580;10.094;2024-01-06T14:20:41;3.50;87.70
7218;DHT22;3650;53.580;10.094;2024-01-06T14:23:08;3.50;87.80
7218;DHT22;3650;53.580;10.094;2024-01-06T14:25:36;3.50;88.20
7218;DHT22;3650;53.580;10.094;2024-01-06T14:28:03;3.50;89.00
7218;DHT22;3650;53.580;10.094;2024-01-06T14:30:31;3.50;88.60
7218;DHT22;3650;53.580;10.094;2024-01-06T14:32:58;3.50;89.60
7218;DHT22;3650;53.580;10.094;2024-01-06T14:35:26;3.50;90.00
7218;DHT22;3650;53.580;10.094;2024-01-06T14:37:53;3.50;89.70
7218;DHT22;3650;53.580;10.094;2024-01-06T14:40:20;3.50;89.50
7218;DHT22;3650;53.580;10.094;2024-01-06T14:42:47;3.50;89.10
7218;DHT22;3650;53.580;10.094;2024-01-06T14:45:14;3.50;88.90
7218;DHT22;3650;53.580;10.094;2024-01-06T14:47:41;3.50;88.60
7218;DHT22;3650;53.580;10.094;2024-01-06T14:50:08;3.50;88.20
7218;DHT22;3650;53.580;10.094;2024-01-06T14:52:36;3.40;87.60
7218;DHT22;3650;53.580;10.094;2024-01-06T14:55:04;3.40;87.60
7218;DHT22;3650;53.580;10.094;2024-01-06T14:57:31;3.40;88.00
7218;DHT22;3650;53.580;10.094;2024-01-06T14:59:58;3.40;88.70
7218;DHT22;3650;53.580;10.094;2024-01-06T15:02:25;3.40;88.90
7218;DHT22;3650;53.580;10.094;2024-01-06T15:04:51;3.50;89.70
7218;DHT22;3650;53.580;10.094;2024-01-06T15:07:19;3.40;89.00
7218;DHT22;3650;53.580;10.094;2024-01-06T15:09:47;3.40;89.30
7218;DHT22;3650;53.580;10.094;2024-01-06T15:12:14;3.40;89.80
7218;DHT22;3650;53.580;10.094;2024-01-06T15:14:41;3.40;89.70
7218;DHT22;3650;53.580;10.094;2024-01-06T15:17:08;3.40;89.60
7218;DHT22;3650;53.580;10.094;2024-01-06T15:19:35;3.40;88.90
7218;DHT22;3650;53.580;10.094;2024-01-06T15:22:03;3.40;89.00
7218;DHT22;3650;53.580;10.094;2024-01-06T15:24:30;3.40;88.90
7218;DHT22;3650;53.580;10.094;2024-01-06T15:26:58;3.30;88.70
7218;DHT22;3650;53.580;10.094;2024-01-06T15:29:25;3.30;88.70
7218;DHT22;3650;53.580;10.094;2024-01-06T15:31:52;3.30;88.40
7218;DHT22;3650;53.580;10.094;2024-01-06T15:34:22;3.30;88.40
7218;DHT22;3650;53.580;10.094;2024-01-06T15:36:49;3.30;88.40
7218;DHT22;3650;53.580;10.094;2024-01-06T15:39:16;3.30;88.10
7218;DHT22;3650;53.580;10.094;2024-01-06T15:41:43;3.20;87.50
7218;DHT22;3650;53.580;10.094;2024-01-06T15:44:12;3.20;87.50
7218;DHT22;3650;53.580;10.094;2024-01-06T15:46:39;3.30;88.10
7218;DHT22;3650;53.580;10.094;2024-01-06T15:49:05;3.20;88.50
7218;DHT22;3650;53.580;10.094;2024-01-06T15:51:31;3.20;88.30
7218;DHT22;3650;53.580;10.094;2024-01-06T15:53:58;3.20;88.60
7218;DHT22;3650;53.580;10.094;2024-01-06T15:56:25;3.20;88.80
7218;DHT22;3650;53.580;10.094;2024-01-06T15:58:52;3.20;90.00
7218;DHT22;3650;53.580;10.094;2024-01-06T16:01:23;3.20;90.20
7218;DHT22;3650;53.580;10.094;2024-01-06T16:03:50;3.20;90.20